Map

Track Data

SID SEASON NUMBER BASIN SUBBASIN NAME ISO_TIME NATURE LAT LON WMO_WIND WMO_PRES WMO_AGENCY TRACK_TYPE DIST2LAND LANDFALL IFLAG USA_AGENCY USA_ATCF_ID USA_LAT USA_LON USA_RECORD USA_STATUS USA_WIND USA_PRES USA_SSHS USA_R34_NE USA_R34_SE USA_R34_SW USA_R34_NW USA_R50_NE USA_R50_SE USA_R50_SW USA_R50_NW USA_R64_NE USA_R64_SE USA_R64_SW USA_R64_NW USA_POCI USA_ROCI USA_RMW USA_EYE TOKYO_LAT TOKYO_LON TOKYO_GRADE TOKYO_WIND TOKYO_PRES TOKYO_R50_DIR TOKYO_R50_LONG TOKYO_R50_SHORT TOKYO_R30_DIR TOKYO_R30_LONG TOKYO_R30_SHORT TOKYO_LAND CMA_LAT CMA_LON CMA_CAT CMA_WIND CMA_PRES HKO_LAT HKO_LON HKO_CAT HKO_WIND HKO_PRES NEWDELHI_LAT NEWDELHI_LON NEWDELHI_GRADE NEWDELHI_WIND NEWDELHI_PRES NEWDELHI_CI NEWDELHI_DP NEWDELHI_POCI REUNION_LAT REUNION_LON REUNION_TYPE REUNION_WIND REUNION_PRES REUNION_TNUM REUNION_CI REUNION_RMW REUNION_R34_NE REUNION_R34_SE REUNION_R34_SW REUNION_R34_NW REUNION_R50_NE REUNION_R50_SE REUNION_R50_SW REUNION_R50_NW REUNION_R64_NE REUNION_R64_SE REUNION_R64_SW REUNION_R64_NW BOM_LAT BOM_LON BOM_TYPE BOM_WIND BOM_PRES BOM_TNUM BOM_CI BOM_RMW BOM_R34_NE BOM_R34_SE BOM_R34_SW BOM_R34_NW BOM_R50_NE BOM_R50_SE BOM_R50_SW BOM_R50_NW BOM_R64_NE BOM_R64_SE BOM_R64_SW BOM_R64_NW BOM_ROCI BOM_POCI BOM_EYE BOM_POS_METHOD BOM_PRES_METHOD NADI_LAT NADI_LON NADI_CAT NADI_WIND NADI_PRES WELLINGTON_LAT WELLINGTON_LON WELLINGTON_WIND WELLINGTON_PRES DS824_LAT DS824_LON DS824_STAGE DS824_WIND DS824_PRES TD9636_LAT TD9636_LON TD9636_STAGE TD9636_WIND TD9636_PRES TD9635_LAT TD9635_LON TD9635_WIND TD9635_PRES TD9635_ROCI NEUMANN_LAT NEUMANN_LON NEUMANN_CLASS NEUMANN_WIND NEUMANN_PRES MLC_LAT MLC_LON MLC_CLASS MLC_WIND MLC_PRES USA_GUST BOM_GUST BOM_GUST_PER REUNION_GUST REUNION_GUST_PER USA_SEAHGT USA_SEARAD_NE USA_SEARAD_SE USA_SEARAD_SW USA_SEARAD_NW STORM_SPEED STORM_DIR
1908052S13066 1908 11 SI MM NOT_NAMED 1908-02-21 06:00:00 NR -12.6000 66.3000 reunion main 1243 1211 _____O________ -1 -12.6000 66.3000 99 9.90000 5 224
1908052S13066 1908 11 SI MM NOT_NAMED 1908-02-21 09:00:00 NR -12.7716 66.1318 main 1211 1196 _____P________ -1 -12.7716 66.1318 99 5 224
1908052S13066 1908 11 SI MM NOT_NAMED 1908-02-21 12:00:00 NR -12.9411 65.9651 main 1196 1165 _____P________ -1 -12.9411 65.9651 99 5 224
1908052S13066 1908 11 SI MM NOT_NAMED 1908-02-21 15:00:00 NR -13.1064 65.8018 main 1165 1157 _____P________ -1 -13.1064 65.8018 99 3 214
1908052S13066 1908 11 SI MM NOT_NAMED 1908-02-21 18:00:00 NR -13.2124 65.7749 main 1157 1134 _____P____O___ -1 -13.2656 65.6436 99 -13.0000 66.3000 7 3 208
1908052S13066 1908 11 SI MM NOT_NAMED 1908-02-21 21:00:00 NR -13.3653 65.6630 main 1134 1110 _____P____P___ -1 -13.4165 65.4926 99 -13.2629 66.0038 7 4 218
1908052S13066 1908 11 SI MM NOT_NAMED 1908-02-22 00:00:00 NR -13.5372 65.5113 main 1110 1087 _____P____P___ -1 -13.5572 65.3504 99 -13.5104 65.7258 7 5 221
1908052S13066 1908 11 SI MM NOT_NAMED 1908-02-22 03:00:00 NR -13.7067 65.3519 main 1087 1064 _____P____P___ -1 -13.6857 65.2189 99 -13.7278 65.4848 7 4 224
1908052S13066 1908 11 SI MM NOT_NAMED 1908-02-22 06:00:00 NR -13.8500 65.2000 reunion main 1064 1041 _____O____O___ -1 -13.8000 65.1000 99 9.90000 -13.9000 65.3000 7 4 225
1908052S13066 1908 11 SI MM NOT_NAMED 1908-02-22 09:00:00 NR -13.9584 65.0886 main 1041 1033 _____P____P___ -1 -13.8989 64.9947 99 -14.0179 65.1825 7 3 225
1908052S13066 1908 11 SI MM NOT_NAMED 1908-02-22 12:00:00 NR -14.0397 65.0064 main 1033 1017 _____P____P___ -1 -13.9847 64.9007 99 -14.0948 65.1121 7 2 226
1908052S13066 1908 11 SI MM NOT_NAMED 1908-02-22 15:00:00 NR -14.1049 64.9378 main 1017 1010 _____P____P___ -1 -14.0606 64.8150 99 -14.1492 65.0607 7 2 228
1908052S13066 1908 11 SI MM NOT_NAMED 1908-02-22 18:00:00 NR -14.1648 64.8672 main 1010 1002 _____P____O___ -1 -14.1296 64.7343 99 -14.2000 65.0000 7 2 231
1908052S13066 1908 11 SI MM NOT_NAMED 1908-02-22 21:00:00 NR -14.2330 64.7705 main 1002 986 _____P____P___ -1 -14.1950 64.6556 99 -14.2710 64.8853 7 2 235
1908052S13066 1908 11 SI MM NOT_NAMED 1908-02-23 00:00:00 NR -14.3011 64.6666 main 986 971 _____P____P___ -1 -14.2597 64.5758 99 -14.3425 64.7575 7 2 236
1908052S13066 1908 11 SI MM NOT_NAMED 1908-02-23 03:00:00 NR -14.3724 64.5588 main 971 963 _____P____P___ -1 -14.3270 64.4916 99 -14.4178 64.6259 7 3 235
1908052S13066 1908 11 SI MM NOT_NAMED 1908-02-23 06:00:00 NR -14.4500 64.4500 reunion main 963 947 _____O____O___ -1 -14.4000 64.4000 99 9.90000 -14.5000 64.5000 7 3 231
1908052S13066 1908 11 SI MM NOT_NAMED 1908-02-23 09:00:00 NR -14.5311 64.3532 main 947 932 _____P____P___ -1 -14.4695 64.3095 99 -14.5928 64.3968 7 3 228
1908052S13066 1908 11 SI MM NOT_NAMED 1908-02-23 12:00:00 NR -14.6165 64.2576 main 932 916 _____P____P___ -1 -14.5405 64.2153 99 -14.6924 64.2999 7 3 228
1908052S13066 1908 11 SI MM NOT_NAMED 1908-02-23 15:00:00 NR -14.7064 64.1586 main 916 901 _____P____P___ -1 -14.6168 64.1142 99 -14.7959 64.2031 7 3 227
1908052S13066 1908 11 SI MM NOT_NAMED 1908-02-23 18:00:00 NR -14.8009 64.0517 main 901 877 _____P____O___ -1 -14.7018 64.0033 99 -14.9000 64.1000 7 3 229
1908052S13066 1908 11 SI MM NOT_NAMED 1908-02-23 21:00:00 NR -14.8873 63.9429 main 877 862 _____P____P___ -1 -14.7991 63.8796 99 -14.9755 64.0063 7 3 231
1908052S13066 1908 11 SI MM NOT_NAMED 1908-02-24 00:00:00 NR -14.9835 63.8209 main 862 846 _____P____P___ -1 -14.9122 63.7398 99 -15.0548 63.9020 7 3 230
1908052S13066 1908 11 SI MM NOT_NAMED 1908-02-24 03:00:00 NR -15.1007 63.6764 main 846 823 _____P____P___ -1 -15.0447 63.5810 99 -15.1567 63.7718 7 4 229
1908052S13066 1908 11 SI MM NOT_NAMED 1908-02-24 06:00:00 NR -15.2500 63.5000 reunion main 823 792 _____O____O___ -1 -15.2000 63.4000 99 9.90000 -15.3000 63.6000 7 5 228
1908052S13066 1908 11 SI MM NOT_NAMED 1908-02-24 09:00:00 NR -15.4595 63.2685 main 785 746 _____P____P___ -1 -15.4079 63.1687 99 -15.5110 63.3684 7 7 227
1908052S13066 1908 11 SI MM NOT_NAMED 1908-02-24 12:00:00 NR -15.7021 63.0034 main 746 707 _____P____P___ -1 -15.6416 62.9115 99 -15.7626 63.0953 7 7 226
1908052S13066 1908 11 SI MM NOT_NAMED 1908-02-24 15:00:00 NR -15.9626 62.7182 main 699 661 _____P____P___ -1 -15.8924 62.6368 99 -16.0329 62.7996 7 8 227
1908052S13066 1908 11 SI MM NOT_NAMED 1908-02-24 18:00:00 NR -16.2258 62.4265 main 661 614 _____P____O___ -1 -16.1515 62.3531 99 -16.3000 62.5000 7 8 227
1908052S13066 1908 11 SI MM NOT_NAMED 1908-02-24 21:00:00 NR -16.4795 62.1328 main 614 583 _____P____P___ -1 -16.4104 62.0688 99 -16.5485 62.1967 7 8 228
1908052S13066 1908 11 SI MM NOT_NAMED 1908-02-25 00:00:00 NR -16.7241 61.8452 main 576 545 _____P____P___ -1 -16.6605 61.7927 99 -16.7877 61.8977 7 7 228
1908052S13066 1908 11 SI MM NOT_NAMED 1908-02-25 03:00:00 NR -16.9506 61.5792 main 537 514 _____P____P___ -1 -16.8932 61.5335 99 -17.0079 61.6249 7 6 228
1908052S13066 1908 11 SI MM NOT_NAMED 1908-02-25 06:00:00 NR -17.1500 61.3500 reunion main 514 483 _____O____O___ -1 -17.1000 61.3000 99 9.90000 -17.2000 61.4000 7 5 227
1908052S13066 1908 11 SI MM NOT_NAMED 1908-02-25 09:00:00 NR -17.2982 61.1910 main 483 468 _____P____P___ -1 -17.2429 61.1286 99 -17.3535 61.2533 7 4 225
1908052S13066 1908 11 SI MM NOT_NAMED 1908-02-25 12:00:00 NR -17.4208 61.0679 main 468 453 _____P____P___ -1 -17.3618 60.9814 99 -17.4797 61.1545 7 3 223
1908052S13066 1908 11 SI MM NOT_NAMED 1908-02-25 15:00:00 NR -17.5269 60.9657 main 453 437 _____P____P___ -1 -17.4627 60.8529 99 -17.5911 61.0784 7 3 223
1908052S13066 1908 11 SI MM NOT_NAMED 1908-02-25 18:00:00 NR -17.6256 60.8689 main 437 422 _____P____O___ -1 -17.5513 60.7378 99 -17.7000 61.0000 7 3 224
1908052S13066 1908 11 SI MM NOT_NAMED 1908-02-25 21:00:00 NR -17.7313 60.7583 main 422 407 _____P____P___ -1 -17.6335 60.6304 99 -17.8290 60.8862 7 3 225
1908052S13066 1908 11 SI MM NOT_NAMED 1908-02-26 00:00:00 NR -17.8363 60.6452 main 399 383 _____P____P___ -1 -17.7151 60.5254 99 -17.9575 60.7650 7 3 226
1908052S13066 1908 11 SI MM NOT_NAMED 1908-02-26 03:00:00 NR -17.9421 60.5267 main 383 368 _____P____P___ -1 -17.8020 60.4171 99 -18.0822 60.6362 7 3 228
1908052S13066 1908 11 SI MM NOT_NAMED 1908-02-26 06:00:00 NR -18.0500 60.4000 reunion main 368 346 _____O____O___ -1 -17.9000 60.3000 99 9.90000 -18.2000 60.5000 7 3 229
1908052S13066 1908 11 SI MM NOT_NAMED 1908-02-26 09:00:00 NR -18.1632 60.2543 main 346 322 _____P____P___ -1 -18.0314 60.1515 99 -18.2950 60.3571 7 4 231
1908052S13066 1908 11 SI MM NOT_NAMED 1908-02-26 12:00:00 NR -18.2781 60.1020 main 322 307 _____P____P___ -1 -18.1713 59.9966 99 -18.3850 60.2073 7 4 231
1908052S13066 1908 11 SI MM NOT_NAMED 1908-02-26 15:00:00 NR -18.4002 59.9452 main 299 283 _____P____P___ -1 -18.3180 59.8366 99 -18.4825 60.0539 7 4 229
1908052S13066 1908 11 SI MM NOT_NAMED 1908-02-26 18:00:00 NR -18.5350 59.7863 main 283 253 _____P____O___ -1 -18.4700 59.6725 99 -18.6000 59.9000 7 4 226
1908052S13066 1908 11 SI MM NOT_NAMED 1908-02-26 21:00:00 NR -18.6896 59.6298 main 253 238 _____P____P___ -1 -18.6258 59.5056 99 -18.7534 59.7540 7 4 223
1908052S13066 1908 11 SI MM NOT_NAMED 1908-02-27 00:00:00 NR -18.8556 59.4723 main 231 207 _____P____P___ -1 -18.7837 59.3371 99 -18.9274 59.6074 7 5 222
1908052S13066 1908 11 SI MM NOT_NAMED 1908-02-27 03:00:00 NR -19.0275 59.3127 main 207 186 _____P____P___ -1 -18.9423 59.1682 99 -19.1127 59.4571 7 5 221
1908052S13066 1908 11 SI MM NOT_NAMED 1908-02-27 06:00:00 NR -19.2000 59.1500 reunion main 186 156 _____O____O___ -1 -19.1000 59.0000 99 9.90000 -19.3000 59.3000 7 5 223
1908052S13066 1908 11 SI MM NOT_NAMED 1908-02-27 09:00:00 NR -19.3636 58.9866 main 156 133 _____P____P___ -1 -19.2441 58.8410 99 -19.4831 59.1322 7 5 224
1908052S13066 1908 11 SI MM NOT_NAMED 1908-02-27 12:00:00 NR -19.5263 58.8200 main 133 113 _____P____P___ -1 -19.3875 58.6825 99 -19.6650 58.9575 7 5 224
1908052S13066 1908 11 SI MM NOT_NAMED 1908-02-27 15:00:00 NR -19.6854 58.6514 main 113 90 _____P____P___ -1 -19.5315 58.5237 99 -19.8393 58.7791 7 4 226
1908052S13066 1908 11 SI MM NOT_NAMED 1908-02-27 18:00:00 NR -19.8386 58.4820 main 90 62 _____P____O___ -1 -19.6771 58.3640 99 -20.0000 58.6000 7 4 227
1908052S13066 1908 11 SI MM NOT_NAMED 1908-02-27 21:00:00 NR -19.9763 58.3177 main 62 47 _____P____P___ -1 -19.8256 58.2025 99 -20.1271 58.4328 7 4 229
1908052S13066 1908 11 SI MM NOT_NAMED 1908-02-28 00:00:00 NR -20.1102 58.1516 main 47 23 _____P____P___ -1 -19.9781 58.0386 99 -20.2423 58.2645 7 4 229
1908052S13066 1908 11 SI MM NOT_NAMED 1908-02-28 03:00:00 NR -20.2487 57.9802 main 23 10 _____P____P___ -1 -20.1359 57.8713 99 -20.3614 58.0890 7 4 229
1908052S13066 1908 11 SI MM NOT_NAMED 1908-02-28 06:00:00 NR -20.4000 57.8000 reunion main 10 0 _____O____O___ -1 -20.3000 57.7000 99 9.90000 -20.5000 57.9000 7 5 227
1908052S13066 1908 11 SI MM NOT_NAMED 1908-02-28 09:00:00 NR -20.5859 57.5950 main 11 11 _____P____P___ -1 -20.4851 57.5125 99 -20.6867 57.6774 7 6 225
1908052S13066 1908 11 SI MM NOT_NAMED 1908-02-28 12:00:00 NR -20.7853 57.3812 main 33 33 _____P____P___ -1 -20.6780 57.3197 99 -20.8926 57.4428 7 6 225
1908052S13066 1908 11 SI MM NOT_NAMED 1908-02-28 15:00:00 NR -20.9887 57.1679 main 56 56 _____P____P___ -1 -20.8751 57.1241 99 -21.1023 57.2118 7 6 224
1908052S13066 1908 11 SI MM NOT_NAMED 1908-02-28 18:00:00 NR -21.1864 56.9642 main 84 84 _____P____O___ -1 -21.0728 56.9284 99 -21.3000 57.0000 7 5 224
1908052S13066 1908 11 SI MM NOT_NAMED 1908-02-28 21:00:00 NR -21.3700 56.7798 main 104 85 _____P____P___ -1 -21.2677 56.7354 99 -21.4724 56.8242 7 5 223
1908052S13066 1908 11 SI MM NOT_NAMED 1908-02-29 00:00:00 NR -21.5430 56.6088 main 85 79 _____P____P___ -1 -21.4562 56.5478 99 -21.6298 56.6698 7 5 223
1908052S13066 1908 11 SI MM NOT_NAMED 1908-02-29 03:00:00 NR -21.7036 56.4494 main 76 76 _____P____P___ -1 -21.6348 56.3684 99 -21.7724 56.5305 7 4 223
1908052S13066 1908 11 SI MM NOT_NAMED 1908-02-29 06:00:00 NR -21.8500 56.3000 reunion main 76 76 _____O____O___ -1 -21.8000 56.2000 99 9.90000 -21.9000 56.4000 7 4 225
1908052S13066 1908 11 SI MM NOT_NAMED 1908-02-29 09:00:00 NR -21.9684 56.1659 main 88 84 _____P____P___ -1 -21.9265 56.0641 99 -22.0103 56.2676 7 3 227
1908052S13066 1908 11 SI MM NOT_NAMED 1908-02-29 12:00:00 NR -22.0732 56.0415 main 88 84 _____P____P___ -1 -22.0389 55.9406 99 -22.1074 56.1423 7 3 228
1908052S13066 1908 11 SI MM NOT_NAMED 1908-02-29 15:00:00 NR -22.1715 55.9228 main 94 91 _____P____P___ -1 -22.1421 55.8249 99 -22.2009 56.0208 7 3 228
1908052S13066 1908 11 SI MM NOT_NAMED 1908-02-29 18:00:00 NR -22.2707 55.8062 main 102 101 _____P____O___ -1 -22.2413 55.7123 99 -22.3000 55.9000 7 3 226
1908052S13066 1908 11 SI MM NOT_NAMED 1908-02-29 21:00:00 NR -22.3736 55.6946 main 112 111 _____P____P___ -1 -22.3417 55.5983 99 -22.4055 55.7910 7 3 224
1908052S13066 1908 11 SI MM NOT_NAMED 1908-03-01 00:00:00 NR -22.4840 55.5788 main 122 122 _____P____P___ -1 -22.4482 55.4780 99 -22.5198 55.6796 7 3 224
1908052S13066 1908 11 SI MM NOT_NAMED 1908-03-01 03:00:00 NR -22.6076 55.4501 main 134 134 _____P____P___ -1 -22.5660 55.3468 99 -22.6492 55.5534 7 4 224
1908052S13066 1908 11 SI MM NOT_NAMED 1908-03-01 06:00:00 NR -22.7500 55.3000 reunion main 148 148 _____O____O___ -1 -22.7000 55.2000 99 9.90000 -22.8000 55.4000 7 4 225
1908052S13066 1908 11 SI MM NOT_NAMED 1908-03-01 09:00:00 NR -22.9220 55.1082 main 175 175 _____P____P___ -1 -22.8696 55.0166 99 -22.9745 55.1998 7 5 226
1908052S13066 1908 11 SI MM NOT_NAMED 1908-03-01 12:00:00 NR -23.1121 54.8953 main 203 203 _____P____P___ -1 -23.0541 54.8179 99 -23.1702 54.9726 7 6 226
1908052S13066 1908 11 SI MM NOT_NAMED 1908-03-01 15:00:00 NR -23.3156 54.6707 main 231 231 _____P____P___ -1 -23.2505 54.6074 99 -23.3807 54.7341 7 6 225
1908052S13066 1908 11 SI MM NOT_NAMED 1908-03-01 18:00:00 NR -23.5278 54.4442 main 262 262 _____P____O___ -1 -23.4556 54.3884 99 -23.6000 54.5000 7 6 223
1908052S13066 1908 11 SI MM NOT_NAMED 1908-03-01 21:00:00 NR -23.7460 54.2287 main 291 291 _____P____P___ -1 -23.6661 54.1647 99 -23.8258 54.2927 7 6 222
1908052S13066 1908 11 SI MM NOT_NAMED 1908-03-02 00:00:00 NR -23.9682 54.0160 main 329 329 _____P____P___ -1 -23.8791 53.9396 99 -24.0573 54.0924 7 6 221
1908052S13066 1908 11 SI MM NOT_NAMED 1908-03-02 03:00:00 NR -24.1883 53.8063 main 358 358 _____P____P___ -1 -24.0914 53.7168 99 -24.2852 53.8958 7 6 221
1908052S13066 1908 11 SI MM NOT_NAMED 1908-03-02 06:00:00 NR -24.4000 53.6000 reunion main 387 387 _____O____O___ -1 -24.3000 53.5000 99 9.90000 -24.5000 53.7000 7 6 224
1908052S13066 1908 11 SI MM NOT_NAMED 1908-03-02 09:00:00 NR -24.5849 53.3852 main 416 416 _____P____P___ -1 -24.4846 53.2708 99 -24.6852 53.4997 7 5 227
1908052S13066 1908 11 SI MM NOT_NAMED 1908-03-02 12:00:00 NR -24.7618 53.1708 main 446 446 _____P____P___ -1 -24.6662 53.0420 99 -24.8574 53.2996 7 5 228
1908052S13066 1908 11 SI MM NOT_NAMED 1908-03-02 15:00:00 NR -24.9363 52.9595 main 466 466 _____P____P___ -1 -24.8467 52.8194 99 -25.0259 53.0997 7 5 227
1908052S13066 1908 11 SI MM NOT_NAMED 1908-03-02 18:00:00 NR -25.1140 52.7543 main 495 495 _____P____O___ -1 -25.0280 52.6086 99 -25.2000 52.9000 7 5 226
1908052S13066 1908 11 SI MM NOT_NAMED 1908-03-02 21:00:00 NR -25.2984 52.5436 main 525 518 _____P____P___ -1 -25.2120 52.4154 99 -25.3848 52.6717 7 5 225
1908052S13066 1908 11 SI MM NOT_NAMED 1908-03-03 00:00:00 NR -25.4892 52.3467 main 512 506 _____P____P___ -1 -25.4007 52.2457 99 -25.5777 52.4478 7 5 220
1908052S13066 1908 11 SI MM NOT_NAMED 1908-03-03 03:00:00 NR -25.6889 52.1776 main 510 501 _____P____P___ -1 -25.5960 52.1053 99 -25.7817 52.2499 7 5 213
1908052S13066 1908 11 SI MM NOT_NAMED 1908-03-03 06:00:00 NR -25.9000 52.0500 reunion main 507 497 _____O____O___ -1 -25.8000 52.0000 99 9.90000 -26.0000 52.1000 7 5 203
1908052S13066 1908 11 SI MM NOT_NAMED 1908-03-03 09:00:00 NR -26.1393 51.9643 main 504 499 _____P____P___ -1 -26.0432 51.9204 99 -26.2354 52.0082 7 5 193
1908052S13066 1908 11 SI MM NOT_NAMED 1908-03-03 12:00:00 NR -26.3914 51.9206 main 505 505 _____P____P___ -1 -26.2980 51.8738 99 -26.4848 51.9673 7 5 183
1908052S13066 1908 11 SI MM NOT_NAMED 1908-03-03 15:00:00 NR -26.6498 51.9132 main 512 512 _____P____P___ -1 -26.5579 51.8587 99 -26.7417 51.9677 7 5 177
1908052S13066 1908 11 SI MM NOT_NAMED 1908-03-03 18:00:00 NR -26.9081 51.9367 main 524 524 _____P____O___ -1 -26.8161 51.8735 99 -27.0000 52.0000 7 5 173
1908052S13066 1908 11 SI MM NOT_NAMED 1908-03-03 21:00:00 NR -27.1603 51.9859 main 547 547 _____P____P___ -1 -27.0662 51.9166 99 -27.2545 52.0552 7 5 168
1908052S13066 1908 11 SI MM NOT_NAMED 1908-03-04 00:00:00 NR -27.3886 52.0468 main 557 557 _____P____P___ -1 -27.3012 51.9865 99 -27.5051 52.1272 7 5 164
1908052S13066 1908 11 SI MM NOT_NAMED 1908-03-04 03:00:00 NR -27.5942 52.1246 main 576 576 _____P____P___ -1 -27.5148 52.0815 99 -27.7532 52.2106 7 4 158
1908052S13066 1908 11 SI MM NOT_NAMED 1908-03-04 06:00:00 NR -27.7600 52.2200 reunion main 596 596 _____O____O___ -1 -27.7000 52.2000 99 9.90000 -28.0000 52.3000 7 3 144
1908052S13066 1908 11 SI MM NOT_NAMED 1908-03-04 09:00:00 NR -27.8521 52.3400 main 610 610 _____P________ -1 -27.8521 52.3400 99 7 3 131
1908052S13066 1908 11 SI MM NOT_NAMED 1908-03-04 12:00:00 NR -27.9736 52.4991 main 632 632 _____P________ -1 -27.9736 52.4991 99 7 4 126
1908052S13066 1908 11 SI MM NOT_NAMED 1908-03-04 15:00:00 NR -28.0687 52.6744 main 655 655 _____P________ -1 -28.0687 52.6744 99 7 4 118
1908052S13066 1908 11 SI MM NOT_NAMED 1908-03-04 18:00:00 NR -28.1418 52.8633 main 672 672 _____P________ -1 -28.1418 52.8633 99 4 110
1908052S13066 1908 11 SI MM NOT_NAMED 1908-03-04 21:00:00 NR -28.1971 53.0630 main 694 694 _____P________ -1 -28.1971 53.0630 99 4 105
1908052S13066 1908 11 SI MM NOT_NAMED 1908-03-05 00:00:00 NR -28.2390 53.2708 main 711 711 _____P________ -1 -28.2390 53.2708 99 4 101
1908052S13066 1908 11 SI MM NOT_NAMED 1908-03-05 03:00:00 NR -28.2719 53.4840 main 734 734 _____P________ -1 -28.2719 53.4840 99 4 99
1908052S13066 1908 11 SI MM NOT_NAMED 1908-03-05 06:00:00 NR -28.3000 53.7000 reunion main 751 _____O________ -1 -28.3000 53.7000 99 9.90000 4 98

About IBTrACS Database

This database is a web-friendly format of International Best Track Archive for Climate Stewardship (IBTrACS), a global best track data archive curated by NOAA dating back to 1842.

Updated: 2021-12-03